createdAt,value
2019-04-19T00:00:10.213Z,1012.8
2019-04-19T00:01:11.308Z,1012.8
2019-04-19T00:02:12.248Z,1012.8
2019-04-19T00:03:17.670Z,1012.8
2019-04-19T00:04:16.190Z,1012.7
2019-04-19T00:05:13.753Z,1012.7
2019-04-19T00:06:21.409Z,1012.7
2019-04-19T00:07:21.160Z,1012.8
2019-04-19T00:08:34.684Z,1012.7
2019-04-19T00:09:30.772Z,1012.7
2019-04-19T00:10:31.721Z,1012.8
2019-04-19T00:11:31.738Z,1012.8
2019-04-19T00:12:34.954Z,1012.8
2019-04-19T00:13:26.234Z,1012.8
2019-04-19T00:14:27.596Z,1012.8
2019-04-19T00:15:28.681Z,1012.7
2019-04-19T00:16:29.798Z,1012.8
2019-04-19T00:17:32.710Z,1012.7
2019-04-19T00:18:32.676Z,1012.8
2019-04-19T00:19:54.296Z,1012.8
2019-04-19T00:20:59.931Z,1012.8
2019-04-19T00:22:01.879Z,1012.7
2019-04-19T00:22:52.399Z,1012.8
2019-04-19T00:23:44.862Z,1012.8
2019-04-19T00:24:41.952Z,1012.8
2019-04-19T00:25:43.372Z,1012.8
2019-04-19T00:26:44.838Z,1012.8
2019-04-19T00:27:51.655Z,1012.8
2019-04-19T00:28:53.712Z,1012.8
2019-04-19T00:29:57.113Z,1012.8
2019-04-19T00:31:00.421Z,1012.8
2019-04-19T00:32:08.083Z,1012.8
2019-04-19T00:33:05.475Z,1012.8
2019-04-19T00:33:57.206Z,1012.8
2019-04-19T00:34:56.694Z,1012.8
2019-04-19T00:35:58.110Z,1012.8
2019-04-19T00:36:59.380Z,1012.8
2019-04-19T00:38:09.423Z,1012.8
2019-04-19T00:39:18.983Z,1012.8
2019-04-19T00:40:21.200Z,1012.8
2019-04-19T00:41:24.313Z,1012.8
2019-04-19T00:42:25.449Z,1012.8
2019-04-19T00:43:27.425Z,1012.8
2019-04-19T00:44:37.610Z,1012.9
2019-04-19T00:45:26.241Z,1012.9
2019-04-19T00:46:31.385Z,1012.9
2019-04-19T00:47:35.454Z,1012.9
2019-04-19T00:48:48.936Z,1012.9
2019-04-19T00:49:27.895Z,1012.9
2019-04-19T00:50:29.334Z,1012.9
2019-04-19T00:51:36.715Z,1012.9
2019-04-19T00:52:55.846Z,1012.9
2019-04-19T00:53:31.645Z,1012.9
2019-04-19T00:54:32.871Z,1012.9
2019-04-19T00:55:42.632Z,1012.9
2019-04-19T00:56:39.804Z,1012.9
2019-04-19T00:57:38.226Z,1012.8
2019-04-19T00:58:34.053Z,1012.9
2019-04-19T00:59:38.566Z,1012.8
2019-04-19T01:00:36.772Z,1012.9
2019-04-19T01:01:35.711Z,1012.9
2019-04-19T01:02:44.054Z,1012.9
2019-04-19T01:03:43.591Z,1012.9
2019-04-19T01:04:41.119Z,1012.9
2019-04-19T01:05:47.196Z,1012.9
2019-04-19T01:06:49.828Z,1012.9
2019-04-19T01:07:45.363Z,1012.9
2019-04-19T01:08:54.231Z,1012.9
2019-04-19T01:10:04.912Z,1012.9
2019-04-19T01:11:06.171Z,1012.9
2019-04-19T01:12:03.300Z,1012.9
2019-04-19T01:13:04.114Z,1013.0
2019-04-19T01:14:10.863Z,1012.9
2019-04-19T01:15:06.949Z,1012.9
2019-04-19T01:16:05.899Z,1013.0
2019-04-19T01:17:14.866Z,1012.9
2019-04-19T01:18:12.667Z,1013.0
2019-04-19T01:19:06.797Z,1013.0
2019-04-19T01:20:03.952Z,1013.0
2019-04-19T01:21:02.864Z,1013.1
2019-04-19T01:22:11.663Z,1013.1
2019-04-19T01:23:10.186Z,1013.0
2019-04-19T01:24:07.814Z,1013.0
2019-04-19T01:25:14.464Z,1013.1
2019-04-19T01:26:12.055Z,1013.1
2019-04-19T01:27:13.249Z,1013.1
2019-04-19T01:28:17.864Z,1013.1
2019-04-19T01:29:15.622Z,1013.1
2019-04-19T01:30:23.095Z,1013.1
2019-04-19T01:31:21.409Z,1013.1
2019-04-19T01:32:22.627Z,1013.1
2019-04-19T01:33:28.271Z,1013.1
2019-04-19T01:34:26.271Z,1013.1
2019-04-19T01:35:26.104Z,1013.1
2019-04-19T01:36:32.465Z,1013.1
2019-04-19T01:37:30.010Z,1013.1
2019-04-19T01:38:33.589Z,1013.1
2019-04-19T01:39:46.948Z,1013.1
2019-04-19T01:40:53.554Z,1013.1
2019-04-19T01:41:47.041Z,1013.1
2019-04-19T01:42:50.309Z,1013.1
2019-04-19T01:43:54.817Z,1013.1
2019-04-19T01:44:54.715Z,1013.1
2019-04-19T01:45:54.628Z,1013.1
2019-04-19T01:46:56.264Z,1013.1
2019-04-19T01:47:56.602Z,1013.1
2019-04-19T01:48:57.207Z,1013.0
2019-04-19T01:49:59.713Z,1013.1
2019-04-19T01:51:03.297Z,1013.0
2019-04-19T01:52:05.792Z,1013.0
2019-04-19T01:53:09.717Z,1013.1
2019-04-19T01:54:09.948Z,1013.0
2019-04-19T01:55:02.766Z,1013.1
2019-04-19T01:55:59.351Z,1013.1
2019-04-19T01:56:58.381Z,1013.1
2019-04-19T01:58:04.886Z,1013.1
2019-04-19T01:59:00.729Z,1013.1
2019-04-19T02:00:00.536Z,1013.1
2019-04-19T02:01:02.949Z,1013.0
2019-04-19T02:02:07.239Z,1013.0
2019-04-19T02:03:06.191Z,1013.0
2019-04-19T02:04:11.430Z,1013.1
2019-04-19T02:05:11.607Z,1013.1
2019-04-19T02:06:11.209Z,1013.1
2019-04-19T02:07:12.537Z,1013.0
2019-04-19T02:08:12.866Z,1013.0
2019-04-19T02:09:11.515Z,1013.0
2019-04-19T02:10:22.792Z,1013.1
2019-04-19T02:11:27.941Z,1013.0
2019-04-19T02:12:30.780Z,1013.0
2019-04-19T02:13:24.770Z,1013.1
2019-04-19T02:14:22.758Z,1013.1
2019-04-19T02:15:33.073Z,1013.1
2019-04-19T02:16:23.908Z,1013.0
2019-04-19T02:17:23.110Z,1013.0
2019-04-19T02:18:27.380Z,1013.0
2019-04-19T02:19:28.062Z,1013.0
2019-04-19T02:20:33.748Z,1013.1
2019-04-19T02:21:33.254Z,1013.0
2019-04-19T02:22:33.087Z,1013.0
2019-04-19T02:23:34.027Z,1013.0
2019-04-19T02:24:37.588Z,1013.0
2019-04-19T02:25:35.295Z,1013.0
2019-04-19T02:26:38.459Z,1013.0
2019-04-19T02:27:40.735Z,1013.0
2019-04-19T02:28:41.043Z,1013.1
2019-04-19T02:29:43.758Z,1013.0
2019-04-19T02:30:53.596Z,1013.1
2019-04-19T02:32:07.241Z,1013.1
2019-04-19T02:33:07.058Z,1013.2
2019-04-19T02:34:17.846Z,1013.2
2019-04-19T02:36:15.566Z,1013.2
2019-04-19T02:37:16.411Z,1013.2
2019-04-19T02:38:22.262Z,1013.2
2019-04-19T02:39:24.105Z,1013.3
2019-04-19T02:40:38.928Z,1013.3
2019-04-19T02:41:26.248Z,1013.3
2019-04-19T02:42:42.260Z,1013.3
2019-04-19T02:43:45.935Z,1013.2
2019-04-19T02:44:24.550Z,1013.3
2019-04-19T02:45:22.241Z,1013.3
2019-04-19T02:46:32.701Z,1013.3
2019-04-19T02:48:37.894Z,1013.3
2019-04-19T02:49:44.798Z,1013.3
2019-04-19T02:51:02.018Z,1013.3
2019-04-19T02:51:38.452Z,1013.3
2019-04-19T02:53:39.199Z,1013.3
2019-04-19T02:54:45.444Z,1013.3
2019-04-19T02:55:50.164Z,1013.4
2019-04-19T02:56:52.186Z,1013.4
2019-04-19T02:58:55.638Z,1013.4
2019-04-19T03:02:04.523Z,1013.4
2019-04-19T03:02:52.914Z,1013.4
2019-04-19T03:04:08.547Z,1013.4
2019-04-19T03:05:03.570Z,1013.4
2019-04-19T03:05:47.531Z,1013.4
2019-04-19T03:06:41.598Z,1013.4
2019-04-19T03:07:34.944Z,1013.5
2019-04-19T03:08:37.482Z,1013.4
2019-04-19T03:09:41.103Z,1013.4
2019-04-19T03:10:53.500Z,1013.4
2019-04-19T03:11:56.331Z,1013.4
2019-04-19T03:13:09.587Z,1013.4
2019-04-19T03:13:57.241Z,1013.4
2019-04-19T03:15:01.780Z,1013.4
2019-04-19T03:16:02.916Z,1013.4
2019-04-19T03:17:14.060Z,1013.4
2019-04-19T03:18:14.737Z,1013.4
2019-04-19T03:20:11.922Z,1013.5
2019-04-19T03:21:10.647Z,1013.5
2019-04-19T03:22:16.356Z,1013.4
2019-04-19T03:23:13.936Z,1013.5
2019-04-19T03:24:15.379Z,1013.4
2019-04-19T03:25:15.282Z,1013.5
2019-04-19T03:26:20.711Z,1013.5
2019-04-19T03:27:13.686Z,1013.5
2019-04-19T03:28:17.238Z,1013.5
2019-04-19T03:29:10.944Z,1013.4
2019-04-19T03:30:25.198Z,1013.4
2019-04-19T03:34:50.309Z,1013.5
2019-04-19T03:35:41.052Z,1013.5
2019-04-19T03:36:31.090Z,1013.5
2019-04-19T03:37:39.707Z,1013.5
2019-04-19T03:38:35.113Z,1013.5
2019-04-19T03:40:39.038Z,1013.5
2019-04-19T03:42:01.016Z,1013.5
2019-04-19T03:42:44.741Z,1013.5
2019-04-19T03:43:57.209Z,1013.5
2019-04-19T03:44:40.217Z,1013.5
2019-04-19T03:45:51.668Z,1013.6
2019-04-19T03:49:08.667Z,1013.5
2019-04-19T03:49:52.712Z,1013.5
2019-04-19T03:51:00.364Z,1013.5
2019-04-19T03:52:04.673Z,1013.5
2019-04-19T03:52:58.686Z,1013.5
2019-04-19T03:54:00.242Z,1013.5
2019-04-19T03:54:56.077Z,1013.5
2019-04-19T03:56:06.261Z,1013.5
2019-04-19T03:57:00.357Z,1013.5
2019-04-19T03:57:55.074Z,1013.5
2019-04-19T03:58:51.296Z,1013.5
2019-04-19T03:59:50.449Z,1013.5
2019-04-19T04:00:52.018Z,1013.5
2019-04-19T04:01:56.269Z,1013.6
2019-04-19T04:02:54.719Z,1013.6
2019-04-19T04:04:01.930Z,1013.6
2019-04-19T04:05:02.730Z,1013.6
2019-04-19T04:05:59.892Z,1013.6
2019-04-19T04:07:07.198Z,1013.6
2019-04-19T04:08:09.221Z,1013.6
2019-04-19T04:09:06.221Z,1013.6
2019-04-19T04:10:05.999Z,1013.7
2019-04-19T04:11:12.594Z,1013.7
2019-04-19T04:12:20.999Z,1013.6
2019-04-19T04:13:22.572Z,1013.6
2019-04-19T04:14:21.773Z,1013.7
2019-04-19T04:15:23.925Z,1013.7
2019-04-19T04:16:24.221Z,1013.7
2019-04-19T04:17:14.941Z,1013.7
2019-04-19T04:18:17.517Z,1013.7
2019-04-19T04:19:18.542Z,1013.7
2019-04-19T04:20:19.841Z,1013.7
2019-04-19T04:21:27.305Z,1013.7
2019-04-19T04:22:26.539Z,1013.7
2019-04-19T04:23:29.925Z,1013.7
2019-04-19T04:24:31.089Z,1013.7
2019-04-19T04:25:30.150Z,1013.8
2019-04-19T04:26:40.377Z,1013.7
2019-04-19T04:27:41.388Z,1013.7
2019-04-19T04:28:44.982Z,1013.7
2019-04-19T04:29:39.128Z,1013.7
2019-04-19T04:30:42.102Z,1013.7
2019-04-19T04:31:45.764Z,1013.7
2019-04-19T04:32:46.959Z,1013.7
2019-04-19T04:33:49.562Z,1013.7
2019-04-19T04:34:51.181Z,1013.7
2019-04-19T04:35:53.221Z,1013.7
2019-04-19T04:36:59.701Z,1013.8
2019-04-19T04:37:54.424Z,1013.7
2019-04-19T04:38:46.578Z,1013.7
2019-04-19T04:39:47.229Z,1013.8
2019-04-19T04:40:48.574Z,1013.7
2019-04-19T04:41:50.146Z,1013.7
2019-04-19T04:43:05.830Z,1013.8
2019-04-19T04:44:10.296Z,1013.8
2019-04-19T04:45:18.302Z,1013.8
2019-04-19T04:46:32.717Z,1013.8
2019-04-19T04:47:16.512Z,1013.8
2019-04-19T04:48:16.564Z,1013.8
2019-04-19T04:49:30.310Z,1013.8
2019-04-19T04:50:28.981Z,1013.8
2019-04-19T04:51:23.431Z,1013.8
2019-04-19T04:52:14.116Z,1013.8
2019-04-19T04:53:04.693Z,1013.8
2019-04-19T04:54:06.153Z,1013.9
2019-04-19T04:55:07.445Z,1013.9
2019-04-19T04:56:10.212Z,1013.9
2019-04-19T04:57:14.062Z,1013.9
2019-04-19T04:58:20.074Z,1013.9
2019-04-19T04:59:17.499Z,1013.9
2019-04-19T05:00:15.863Z,1013.8
2019-04-19T05:01:29.099Z,1013.9
2019-04-19T05:02:37.876Z,1013.9
2019-04-19T05:03:41.661Z,1013.9
2019-04-19T05:04:34.786Z,1013.9
2019-04-19T05:05:39.035Z,1014.0
2019-04-19T05:06:44.925Z,1013.9
2019-04-19T05:07:42.117Z,1013.9
2019-04-19T05:08:45.133Z,1013.9
2019-04-19T05:09:45.296Z,1014.0
2019-04-19T05:10:43.504Z,1013.9
2019-04-19T05:11:49.338Z,1014.0
2019-04-19T05:13:04.461Z,1014.0
2019-04-19T05:13:53.814Z,1014.0
2019-04-19T05:14:50.031Z,1014.0
2019-04-19T05:15:55.419Z,1014.0
2019-04-19T05:17:04.027Z,1014.0
2019-04-19T05:18:05.882Z,1014.0
2019-04-19T05:18:53.786Z,1014.1
2019-04-19T05:20:06.659Z,1014.0
2019-04-19T05:20:58.205Z,1014.1
2019-04-19T05:22:00.927Z,1014.1
2019-04-19T05:23:04.480Z,1014.1
2019-04-19T05:24:13.909Z,1014.1
2019-04-19T05:25:28.875Z,1014.1
2019-04-19T05:26:10.696Z,1014.1
2019-04-19T05:27:17.669Z,1014.2
2019-04-19T05:28:13.906Z,1014.2
2019-04-19T05:29:09.576Z,1014.2
2019-04-19T05:29:57.812Z,1014.1
2019-04-19T05:31:02.278Z,1014.2
2019-04-19T05:32:08.070Z,1014.2
2019-04-19T05:33:09.960Z,1014.2
2019-04-19T05:34:22.322Z,1014.2
2019-04-19T05:35:16.721Z,1014.2
2019-04-19T05:36:24.717Z,1014.3
2019-04-19T05:37:21.266Z,1014.2
2019-04-19T05:38:36.859Z,1014.3
2019-04-19T05:39:31.557Z,1014.2
2019-04-19T05:40:28.993Z,1014.3
2019-04-19T05:41:28.742Z,1014.3
2019-04-19T05:42:34.560Z,1014.3
2019-04-19T05:43:51.461Z,1014.3
2019-04-19T05:44:54.995Z,1014.3
2019-04-19T05:45:42.769Z,1014.3
2019-04-19T05:46:43.074Z,1014.4
2019-04-19T05:47:33.634Z,1014.4
2019-04-19T05:48:33.852Z,1014.4
2019-04-19T05:49:43.919Z,1014.3
2019-04-19T05:50:42.280Z,1014.4
2019-04-19T05:51:49.651Z,1014.4
2019-04-19T05:52:48.158Z,1014.4
2019-04-19T05:53:36.866Z,1014.4
2019-04-19T05:54:32.101Z,1014.4
2019-04-19T05:55:36.821Z,1014.4
2019-04-19T05:56:45.593Z,1014.4
2019-04-19T05:57:54.077Z,1014.4
2019-04-19T05:58:57.335Z,1014.3
2019-04-19T05:59:55.391Z,1014.3
2019-04-19T06:01:04.656Z,1014.4
2019-04-19T06:02:05.424Z,1014.4
2019-04-19T06:03:11.769Z,1014.4
2019-04-19T06:04:21.341Z,1014.4
2019-04-19T06:05:32.049Z,1014.4
2019-04-19T06:06:32.367Z,1014.4
2019-04-19T06:07:31.748Z,1014.4
2019-04-19T06:08:25.200Z,1014.4
2019-04-19T06:09:21.923Z,1014.4
2019-04-19T06:10:31.422Z,1014.4
2019-04-19T06:11:33.363Z,1014.4
2019-04-19T06:12:36.921Z,1014.4
2019-04-19T06:13:42.468Z,1014.4
2019-04-19T06:15:05.218Z,1014.5
2019-04-19T06:16:05.690Z,1014.4
2019-04-19T06:16:58.078Z,1014.5
2019-04-19T06:18:06.767Z,1014.5
2019-04-19T06:19:15.195Z,1014.4
2019-04-19T06:20:15.973Z,1014.5
2019-04-19T06:21:29.164Z,1014.5
2019-04-19T06:22:13.137Z,1014.5
2019-04-19T06:23:31.000Z,1014.5
2019-04-19T06:24:31.690Z,1014.5
2019-04-19T06:25:46.473Z,1014.5
2019-04-19T06:26:53.740Z,1014.5
2019-04-19T06:28:02.724Z,1014.5
2019-04-19T06:28:59.904Z,1014.5
2019-04-19T06:29:58.873Z,1014.5
2019-04-19T06:30:54.675Z,1014.5
2019-04-19T06:32:20.763Z,1014.5
2019-04-19T06:33:15.673Z,1014.5
2019-04-19T06:34:17.676Z,1014.5
2019-04-19T06:35:15.316Z,1014.5
2019-04-19T06:36:18.959Z,1014.5
2019-04-19T06:37:27.995Z,1014.5
2019-04-19T06:38:33.041Z,1014.5
2019-04-19T06:39:39.549Z,1014.5
2019-04-19T06:40:52.338Z,1014.6
2019-04-19T06:42:01.024Z,1014.6
2019-04-19T06:43:09.773Z,1014.6
2019-04-19T06:44:19.923Z,1014.6
2019-04-19T06:45:39.169Z,1014.6
2019-04-19T06:46:41.162Z,1014.6
2019-04-19T06:47:46.497Z,1014.6
2019-04-19T06:48:54.198Z,1014.6
2019-04-19T06:49:58.918Z,1014.6
2019-04-19T06:51:15.515Z,1014.6
2019-04-19T06:52:17.707Z,1014.6
2019-04-19T06:53:23.144Z,1014.7
2019-04-19T06:54:36.762Z,1014.7
2019-04-19T06:55:48.080Z,1014.7
2019-04-19T06:56:59.136Z,1014.7
2019-04-19T06:58:05.659Z,1014.7
2019-04-19T06:59:15.803Z,1014.7
2019-04-19T07:00:26.447Z,1014.7
2019-04-19T07:01:33.373Z,1014.8
2019-04-19T07:02:34.920Z,1014.8
2019-04-19T07:03:41.346Z,1014.8
2019-04-19T07:04:54.250Z,1014.7
2019-04-19T07:06:09.481Z,1014.7
2019-04-19T07:07:22.143Z,1014.8
2019-04-19T07:08:52.344Z,1014.8
2019-04-19T07:10:01.540Z,1014.8
2019-04-19T07:10:50.276Z,1014.8
2019-04-19T07:11:51.715Z,1014.8
2019-04-19T07:12:59.196Z,1014.8
2019-04-19T07:13:53.116Z,1014.8
2019-04-19T07:15:12.354Z,1014.8
2019-04-19T07:16:23.604Z,1014.8
2019-04-19T07:17:20.343Z,1014.8
2019-04-19T07:18:25.389Z,1014.8
2019-04-19T07:19:36.935Z,1014.8
2019-04-19T07:20:29.997Z,1014.8
2019-04-19T07:21:46.882Z,1014.8
2019-04-19T07:22:52.098Z,1014.8
2019-04-19T07:24:03.942Z,1014.8
2019-04-19T07:25:15.308Z,1014.8
2019-04-19T07:26:16.992Z,1014.8
2019-04-19T07:27:15.544Z,1014.8
2019-04-19T07:28:14.677Z,1014.8
2019-04-19T07:29:16.966Z,1014.8
2019-04-19T07:30:22.585Z,1014.8
2019-04-19T07:31:30.445Z,1014.9
2019-04-19T07:32:40.790Z,1014.8
2019-04-19T07:33:53.102Z,1014.9
2019-04-19T07:34:58.305Z,1014.9
2019-04-19T07:36:12.228Z,1014.9
2019-04-19T07:37:14.363Z,1014.9
2019-04-19T07:38:39.859Z,1014.9
2019-04-19T07:39:30.484Z,1014.9
2019-04-19T07:40:36.762Z,1015.0
2019-04-19T07:41:43.881Z,1014.9
2019-04-19T07:42:51.072Z,1014.9
2019-04-19T07:43:51.225Z,1014.9
2019-04-19T07:44:53.865Z,1014.9
2019-04-19T07:46:08.388Z,1014.9
2019-04-19T07:47:10.956Z,1014.9
2019-04-19T07:48:11.201Z,1014.9
2019-04-19T07:49:14.074Z,1014.9
2019-04-19T07:50:24.375Z,1014.9
2019-04-19T07:51:28.617Z,1014.9
2019-04-19T07:52:37.810Z,1014.9
2019-04-19T07:53:42.384Z,1014.9
2019-04-19T07:54:45.857Z,1014.9
2019-04-19T07:56:00.323Z,1014.9
2019-04-19T07:57:17.135Z,1014.9
2019-04-19T07:59:34.517Z,1014.9
2019-04-19T08:01:54.511Z,1014.9
2019-04-19T08:02:54.876Z,1015.0
2019-04-19T08:04:10.404Z,1015.0
2019-04-19T08:06:18.443Z,1015.0
2019-04-19T08:09:39.554Z,1015.0
2019-04-19T08:11:26.679Z,1015.0
2019-04-19T08:12:01.531Z,1015.0
2019-04-19T08:12:55.066Z,1015.0
2019-04-19T08:15:17.362Z,1015.0
2019-04-19T08:16:14.216Z,1015.0
2019-04-19T08:17:41.577Z,1015.0
2019-04-19T08:28:18.109Z,1015.0
2019-04-19T08:29:28.966Z,1015.0
2019-04-19T08:30:32.284Z,1015.0
2019-04-19T08:31:29.850Z,1015.0
2019-04-19T08:32:38.515Z,1015.0
2019-04-19T08:33:44.654Z,1015.0
2019-04-19T08:34:54.942Z,1015.0
2019-04-19T08:36:00.871Z,1015.0
2019-04-19T08:37:13.294Z,1015.1
2019-04-19T08:38:19.228Z,1015.0
2019-04-19T08:39:38.592Z,1015.0
2019-04-19T08:40:43.836Z,1015.0
2019-04-19T08:41:51.886Z,1015.0
2019-04-19T08:42:54.128Z,1015.0
2019-04-19T08:43:59.329Z,1015.0
2019-04-19T08:44:59.178Z,1015.0
2019-04-19T08:45:59.205Z,1015.0
2019-04-19T08:47:16.755Z,1015.0
2019-04-19T08:48:16.885Z,1015.0
2019-04-19T08:49:27.050Z,1015.1
2019-04-19T08:50:28.603Z,1015.1
2019-04-19T08:51:38.565Z,1015.0
2019-04-19T08:52:50.025Z,1015.0
2019-04-19T08:53:57.049Z,1015.0
2019-04-19T08:55:14.067Z,1015.0
2019-04-19T08:56:13.715Z,1015.0
2019-04-19T08:57:13.578Z,1015.0
2019-04-19T08:58:33.337Z,1015.0
2019-04-19T08:59:45.068Z,1015.0
2019-04-19T09:00:58.089Z,1014.9
2019-04-19T09:02:59.460Z,1015.0
2019-04-19T09:04:12.199Z,1014.9
2019-04-19T09:05:16.951Z,1015.0
2019-04-19T09:07:17.066Z,1015.0
2019-04-19T09:08:38.476Z,1014.9
2019-04-19T09:10:00.057Z,1015.0
2019-04-19T09:10:53.525Z,1014.9
2019-04-19T09:12:01.545Z,1015.0
2019-04-19T09:13:20.809Z,1014.9
2019-04-19T09:14:16.234Z,1014.9
2019-04-19T09:15:20.649Z,1014.9
2019-04-19T09:16:24.610Z,1014.9
2019-04-19T09:17:58.115Z,1014.9
2019-04-19T09:18:50.656Z,1014.9
2019-04-19T09:21:00.730Z,1015.0
2019-04-19T09:22:07.719Z,1014.9
2019-04-19T09:23:12.826Z,1014.9
2019-04-19T09:24:27.723Z,1014.9
2019-04-19T09:25:32.567Z,1014.9
2019-04-19T09:26:44.776Z,1014.9
2019-04-19T09:27:54.742Z,1014.9
2019-04-19T09:29:14.282Z,1014.9
2019-04-19T09:30:24.181Z,1014.9
2019-04-19T09:31:31.896Z,1014.8
2019-04-19T09:32:35.962Z,1014.9
2019-04-19T09:33:48.661Z,1014.9
2019-04-19T09:35:03.780Z,1014.9
2019-04-19T09:36:17.343Z,1014.8
2019-04-19T09:37:40.023Z,1014.8
2019-04-19T09:38:47.224Z,1014.8
2019-04-19T09:39:57.551Z,1014.9
2019-04-19T09:41:13.397Z,1014.8
2019-04-19T09:42:21.740Z,1014.9
2019-04-19T09:43:48.148Z,1014.9
2019-04-19T09:44:54.163Z,1014.9
2019-04-19T09:46:04.054Z,1014.8
2019-04-19T09:47:16.456Z,1014.8
2019-04-19T09:48:36.551Z,1014.8
2019-04-19T09:49:47.875Z,1014.8
2019-04-19T09:50:54.983Z,1014.8
2019-04-19T09:52:05.835Z,1014.8
2019-04-19T09:53:30.780Z,1014.8
2019-04-19T09:54:43.466Z,1014.8
2019-04-19T09:55:49.830Z,1014.8
2019-04-19T09:57:00.044Z,1014.8
2019-04-19T09:58:17.186Z,1014.8
2019-04-19T09:59:24.220Z,1014.8
2019-04-19T10:00:32.034Z,1014.8
2019-04-19T10:01:49.880Z,1014.8
2019-04-19T10:03:01.440Z,1014.8
2019-04-19T10:04:11.145Z,1014.8
2019-04-19T10:05:28.773Z,1014.7
2019-04-19T10:06:43.341Z,1014.8
2019-04-19T10:07:57.069Z,1014.8
2019-04-19T10:09:13.799Z,1014.8
2019-04-19T10:10:22.981Z,1014.7
2019-04-19T10:11:36.926Z,1014.7
2019-04-19T10:12:51.820Z,1014.6
2019-04-19T10:14:08.508Z,1014.7
2019-04-19T10:15:18.173Z,1014.7
2019-04-19T10:16:30.511Z,1014.7
2019-04-19T10:17:44.648Z,1014.6
2019-04-19T10:19:05.771Z,1014.7
2019-04-19T10:20:12.978Z,1014.6
2019-04-19T10:21:27.569Z,1014.7
2019-04-19T10:22:37.261Z,1014.6
2019-04-19T10:23:54.010Z,1014.6
2019-04-19T10:25:07.184Z,1014.6
2019-04-19T10:26:24.263Z,1014.7
2019-04-19T10:27:39.555Z,1014.6
2019-04-19T10:28:50.616Z,1014.7
2019-04-19T10:30:04.348Z,1014.6
2019-04-19T10:31:31.422Z,1014.6
2019-04-19T10:32:54.265Z,1014.7
2019-04-19T10:34:10.098Z,1014.6
2019-04-19T10:35:27.385Z,1014.6
2019-04-19T10:36:48.642Z,1014.6
2019-04-19T10:38:01.846Z,1014.6
2019-04-19T10:39:23.813Z,1014.6
2019-04-19T10:40:44.377Z,1014.6
2019-04-19T10:42:01.922Z,1014.6
2019-04-19T10:43:19.511Z,1014.6
2019-04-19T10:44:34.341Z,1014.7
2019-04-19T10:46:00.547Z,1014.6
2019-04-19T10:47:22.887Z,1014.6
2019-04-19T10:48:41.592Z,1014.6
2019-04-19T10:50:11.942Z,1014.6
2019-04-19T10:51:21.569Z,1014.6
2019-04-19T10:52:41.762Z,1014.6
2019-04-19T10:54:00.012Z,1014.6
2019-04-19T10:55:18.176Z,1014.6
2019-04-19T10:56:40.652Z,1014.6
2019-04-19T10:58:03.308Z,1014.5
2019-04-19T10:59:22.595Z,1014.5
2019-04-19T11:00:43.080Z,1014.5
2019-04-19T11:02:06.251Z,1014.6
2019-04-19T11:03:26.559Z,1014.5
2019-04-19T11:04:48.794Z,1014.6
2019-04-19T11:06:08.984Z,1014.6
2019-04-19T11:07:27.543Z,1014.6
2019-04-19T11:08:54.098Z,1014.5
2019-04-19T11:10:17.925Z,1014.5
2019-04-19T11:11:45.526Z,1014.5
2019-04-19T11:13:06.439Z,1014.5
2019-04-19T11:14:30.170Z,1014.4
2019-04-19T11:15:52.039Z,1014.5
2019-04-19T11:17:13.865Z,1014.4
2019-04-19T11:18:41.567Z,1014.5
2019-04-19T11:20:17.929Z,1014.5
2019-04-19T11:21:31.710Z,1014.5
2019-04-19T11:22:53.476Z,1014.5
2019-04-19T11:24:20.013Z,1014.4
2019-04-19T11:25:52.057Z,1014.5
2019-04-19T11:27:17.631Z,1014.4
2019-04-19T11:28:45.167Z,1014.4
2019-04-19T11:30:03.693Z,1014.3
2019-04-19T11:31:33.925Z,1014.3
2019-04-19T11:33:07.069Z,1014.3
2019-04-19T11:34:33.735Z,1014.4
2019-04-19T11:35:57.341Z,1014.3
2019-04-19T11:37:18.411Z,1014.3
2019-04-19T11:38:40.813Z,1014.3
2019-04-19T11:40:06.934Z,1014.3
2019-04-19T11:41:27.700Z,1014.3
2019-04-19T11:42:48.962Z,1014.3
2019-04-19T11:44:17.428Z,1014.3
2019-04-19T11:45:35.720Z,1014.3
2019-04-19T11:47:03.397Z,1014.3
2019-04-19T11:48:22.743Z,1014.2
2019-04-19T11:49:47.344Z,1014.2
2019-04-19T11:51:09.566Z,1014.2
2019-04-19T11:52:34.146Z,1014.2
2019-04-19T11:53:58.624Z,1014.2
2019-04-19T11:55:28.607Z,1014.2
2019-04-19T11:56:54.076Z,1014.2
2019-04-19T11:58:12.515Z,1014.2
2019-04-19T11:59:39.146Z,1014.2
2019-04-19T12:00:56.118Z,1014.2
2019-04-19T12:02:22.065Z,1014.2
2019-04-19T12:03:47.911Z,1014.3
2019-04-19T12:05:16.440Z,1014.2
2019-04-19T12:06:38.466Z,1014.2
2019-04-19T12:08:02.357Z,1014.3
2019-04-19T12:09:30.290Z,1014.2
2019-04-19T12:11:04.220Z,1014.2
2019-04-19T12:12:39.111Z,1014.2
2019-04-19T12:14:12.282Z,1014.3
2019-04-19T12:15:48.435Z,1014.2
2019-04-19T12:17:27.400Z,1014.2
2019-04-19T12:19:04.348Z,1014.3
2019-04-19T12:20:35.926Z,1014.2
2019-04-19T12:22:07.243Z,1014.3
2019-04-19T12:23:41.485Z,1014.2
2019-04-19T12:25:13.491Z,1014.2
2019-04-19T12:26:45.170Z,1014.2
2019-04-19T12:28:15.459Z,1014.2
2019-04-19T12:29:48.089Z,1014.3
2019-04-19T12:31:17.221Z,1014.3
2019-04-19T12:32:43.495Z,1014.3
2019-04-19T12:34:10.084Z,1014.3
2019-04-19T12:35:41.239Z,1014.3
2019-04-19T12:37:15.193Z,1014.2
2019-04-19T12:38:44.094Z,1014.3
2019-04-19T12:40:08.653Z,1014.2
2019-04-19T12:41:30.496Z,1014.2
2019-04-19T12:42:51.990Z,1014.2
2019-04-19T12:44:13.287Z,1014.3
2019-04-19T12:45:30.150Z,1014.3
2019-04-19T12:46:48.657Z,1014.3
2019-04-19T12:48:03.361Z,1014.3
2019-04-19T12:49:20.518Z,1014.3
2019-04-19T12:50:37.298Z,1014.3
2019-04-19T12:51:50.193Z,1014.3
2019-04-19T12:53:06.307Z,1014.3
2019-04-19T12:54:18.240Z,1014.2
2019-04-19T12:55:32.241Z,1014.3
2019-04-19T12:56:47.552Z,1014.3
2019-04-19T12:57:59.397Z,1014.3
2019-04-19T12:59:13.854Z,1014.2
2019-04-19T13:00:26.348Z,1014.2
2019-04-19T13:01:37.604Z,1014.2
2019-04-19T13:02:49.931Z,1014.2
2019-04-19T13:04:04.221Z,1014.2
2019-04-19T13:05:18.302Z,1014.2
2019-04-19T13:06:31.585Z,1014.2
2019-04-19T13:07:41.335Z,1014.1
2019-04-19T13:08:52.933Z,1014.1
2019-04-19T13:10:09.047Z,1014.1
2019-04-19T13:11:20.991Z,1014.1
2019-04-19T13:12:31.342Z,1014.1
2019-04-19T13:13:43.717Z,1014.1
2019-04-19T13:14:51.306Z,1014.1
2019-04-19T13:16:06.158Z,1014.1
2019-04-19T13:17:16.049Z,1014.1
2019-04-19T13:18:24.463Z,1014.1
2019-04-19T13:19:33.431Z,1014.1
2019-04-19T13:20:43.960Z,1014.1
2019-04-19T13:21:58.538Z,1014.1
2019-04-19T13:23:08.440Z,1014.1
2019-04-19T13:24:20.347Z,1014.1
2019-04-19T13:25:29.223Z,1014.1
2019-04-19T13:26:41.196Z,1014.1
2019-04-19T13:27:54.390Z,1014.1
2019-04-19T13:29:07.240Z,1014.1
2019-04-19T13:30:23.828Z,1014.1
2019-04-19T13:31:34.603Z,1014.1
2019-04-19T13:32:47.476Z,1014.1
2019-04-19T13:34:05.108Z,1014.1
2019-04-19T13:35:25.173Z,1014.2
2019-04-19T13:36:37.798Z,1014.2
2019-04-19T13:37:52.007Z,1014.2
2019-04-19T13:39:06.790Z,1014.3
2019-04-19T13:40:22.141Z,1014.4
2019-04-19T13:41:36.861Z,1014.4
2019-04-19T13:42:53.757Z,1014.4
2019-04-19T13:44:08.962Z,1014.4
2019-04-19T13:45:29.085Z,1014.4
2019-04-19T13:46:37.028Z,1014.5
2019-04-19T13:47:48.904Z,1014.5
2019-04-19T13:49:00.805Z,1014.4
2019-04-19T13:50:17.413Z,1014.5
2019-04-19T13:51:24.709Z,1014.4
2019-04-19T13:52:39.217Z,1014.4
2019-04-19T13:53:48.841Z,1014.4
2019-04-19T13:54:56.834Z,1014.4
2019-04-19T13:56:06.581Z,1014.4
2019-04-19T13:57:15.591Z,1014.4
2019-04-19T13:58:22.645Z,1014.3
2019-04-19T13:59:35.513Z,1014.2
2019-04-19T14:00:36.218Z,1014.2
2019-04-19T14:01:42.934Z,1014.2
2019-04-19T14:02:51.634Z,1014.2
2019-04-19T14:03:59.723Z,1014.2
2019-04-19T14:05:09.417Z,1014.2
2019-04-19T14:06:18.167Z,1014.2
2019-04-19T14:07:25.311Z,1014.2
2019-04-19T14:08:34.079Z,1014.1
2019-04-19T14:09:39.167Z,1014.1
2019-04-19T14:10:46.152Z,1014.0
2019-04-19T14:11:51.618Z,1013.8
2019-04-19T14:12:57.115Z,1013.7
2019-04-19T14:14:04.809Z,1013.7
2019-04-19T14:15:09.215Z,1013.6
2019-04-19T14:16:15.141Z,1013.7
2019-04-19T14:17:21.958Z,1013.7
2019-04-19T14:18:28.696Z,1013.7
2019-04-19T14:19:34.425Z,1013.7
2019-04-19T14:20:42.507Z,1013.8
2019-04-19T14:21:45.119Z,1013.7
2019-04-19T14:22:57.266Z,1013.8
2019-04-19T14:24:01.710Z,1013.7
2019-04-19T14:25:09.540Z,1013.7
2019-04-19T14:26:29.454Z,1013.8
2019-04-19T14:27:29.398Z,1013.8
2019-04-19T14:28:36.744Z,1013.7
2019-04-19T14:29:43.522Z,1013.8
2019-04-19T14:30:49.265Z,1013.8
2019-04-19T14:31:55.124Z,1013.7
2019-04-19T14:33:04.223Z,1013.7
2019-04-19T14:34:11.065Z,1013.7
2019-04-19T14:35:17.304Z,1013.7
2019-04-19T14:36:21.955Z,1013.7